createdAt,value
2022-12-11T00:00:17.257Z,22.30
2022-12-11T00:02:44.922Z,21.90
2022-12-11T00:05:13.245Z,20.90
2022-12-11T00:07:40.702Z,19.73
2022-12-11T00:10:08.465Z,21.80
2022-12-11T00:12:35.844Z,22.73
2022-12-11T00:15:03.337Z,21.80
2022-12-11T00:17:30.889Z,21.10
2022-12-11T00:19:58.449Z,22.17
2022-12-11T00:22:25.844Z,20.00
2022-12-11T00:24:53.385Z,24.00
2022-12-11T00:27:20.851Z,20.53
2022-12-11T00:29:48.268Z,23.67
2022-12-11T00:32:15.761Z,21.07
2022-12-11T00:34:43.148Z,21.63
2022-12-11T00:37:10.643Z,19.57
2022-12-11T00:39:39.808Z,20.50
2022-12-11T00:42:08.749Z,20.57
2022-12-11T00:44:36.529Z,20.17
2022-12-11T00:47:04.493Z,19.73
2022-12-11T00:49:31.999Z,21.43
2022-12-11T00:51:59.402Z,21.97
2022-12-11T00:54:26.851Z,22.53
2022-12-11T00:56:56.139Z,19.73
2022-12-11T00:59:23.936Z,20.47
2022-12-11T01:01:53.309Z,20.77
2022-12-11T01:04:20.818Z,19.13
2022-12-11T01:06:48.270Z,21.37
2022-12-11T01:09:34.590Z,20.03
2022-12-11T01:12:01.864Z,21.50
2022-12-11T01:14:29.220Z,21.90
2022-12-11T01:16:56.674Z,21.13
2022-12-11T01:19:24.127Z,20.93
2022-12-11T01:21:51.578Z,20.23
2022-12-11T01:24:19.032Z,20.50
2022-12-11T01:26:46.430Z,19.90
2022-12-11T01:29:14.071Z,20.10
2022-12-11T01:31:44.396Z,22.60
2022-12-11T01:34:12.436Z,21.63
2022-12-11T01:36:40.022Z,18.90
2022-12-11T01:39:08.996Z,20.50
2022-12-11T01:41:36.412Z,20.60
2022-12-11T01:44:16.182Z,20.53
2022-12-11T01:46:44.350Z,20.00
2022-12-11T01:49:13.452Z,20.77
2022-12-11T01:51:52.072Z,20.73
2022-12-11T01:54:21.267Z,20.97
2022-12-11T01:56:50.657Z,21.53
2022-12-11T01:59:19.743Z,20.60
2022-12-11T02:01:51.211Z,20.40
2022-12-11T02:04:19.394Z,21.30
2022-12-11T02:06:48.545Z,24.27
2022-12-11T02:09:17.823Z,20.97
2022-12-11T02:11:54.768Z,22.67
2022-12-11T02:14:24.894Z,20.87
2022-12-11T02:16:55.422Z,21.20
2022-12-11T02:19:45.817Z,21.83
2022-12-11T02:22:17.624Z,19.33
2022-12-11T02:24:50.871Z,18.20
2022-12-11T02:27:29.900Z,19.57
2022-12-11T02:30:07.531Z,21.33
2022-12-11T02:32:35.071Z,21.40
2022-12-11T02:35:09.601Z,20.40
2022-12-11T02:37:38.478Z,22.50
2022-12-11T02:40:08.429Z,19.23
2022-12-11T02:42:36.916Z,18.67
2022-12-11T02:45:05.458Z,21.17
2022-12-11T02:47:34.039Z,20.17
2022-12-11T02:50:02.885Z,21.10
2022-12-11T02:52:31.879Z,21.17
2022-12-11T02:55:00.179Z,20.53
2022-12-11T02:57:34.195Z,19.47
2022-12-11T03:00:01.514Z,19.00
2022-12-11T03:02:29.077Z,19.47
2022-12-11T03:04:57.745Z,21.27
2022-12-11T03:07:26.833Z,21.93
2022-12-11T03:09:54.526Z,20.87
2022-12-11T03:12:25.040Z,21.20
2022-12-11T03:14:52.572Z,22.33
2022-12-11T03:17:24.325Z,21.37
2022-12-11T03:19:57.750Z,20.57
2022-12-11T03:22:34.831Z,22.37
2022-12-11T03:25:05.971Z,22.23
2022-12-11T03:27:51.429Z,19.40
2022-12-11T03:30:20.217Z,20.97
2022-12-11T03:32:52.392Z,21.70
2022-12-11T03:35:27.395Z,21.70
2022-12-11T03:37:55.276Z,20.63
2022-12-11T03:40:23.348Z,21.40
2022-12-11T03:42:52.593Z,23.13
2022-12-11T03:45:20.678Z,22.00
2022-12-11T03:47:48.263Z,23.70
2022-12-11T03:50:16.690Z,20.33
2022-12-11T03:52:46.188Z,22.10
2022-12-11T03:55:14.855Z,21.57
2022-12-11T03:57:42.016Z,21.30
2022-12-11T04:00:10.908Z,22.47
2022-12-11T04:02:41.543Z,19.67
2022-12-11T04:05:09.652Z,21.83
2022-12-11T04:07:37.123Z,20.00
2022-12-11T04:10:05.239Z,20.50
2022-12-11T04:12:32.388Z,20.30
2022-12-11T04:15:02.406Z,21.50
2022-12-11T04:17:54.898Z,20.50
2022-12-11T04:20:41.028Z,21.97
2022-12-11T04:23:30.809Z,23.13
2022-12-11T04:26:08.330Z,22.80
2022-12-11T04:28:35.893Z,22.83
2022-12-11T04:31:03.139Z,21.50
2022-12-11T04:33:30.761Z,21.57
2022-12-11T04:35:58.476Z,23.37
2022-12-11T04:38:25.771Z,22.67
2022-12-11T04:41:09.702Z,22.73
2022-12-11T04:43:36.983Z,22.70
2022-12-11T04:46:11.908Z,22.33
2022-12-11T04:48:39.666Z,22.13
2022-12-11T04:51:07.374Z,24.27
2022-12-11T04:53:34.740Z,23.67
2022-12-11T04:56:02.096Z,21.83
2022-12-11T04:58:29.281Z,23.83
2022-12-11T05:00:56.406Z,21.77
2022-12-11T05:03:24.740Z,22.10
2022-12-11T05:05:53.157Z,22.97
2022-12-11T05:08:21.076Z,22.63
2022-12-11T05:11:02.172Z,21.30
2022-12-11T05:13:29.954Z,22.40
2022-12-11T05:15:57.439Z,22.80
2022-12-11T05:18:25.135Z,21.60
2022-12-11T05:20:59.665Z,21.10
2022-12-11T05:23:27.169Z,24.37
2022-12-11T05:25:58.596Z,23.90
2022-12-11T05:28:26.703Z,22.67
2022-12-11T05:30:57.930Z,21.83
2022-12-11T05:33:25.817Z,22.17
2022-12-11T05:35:52.968Z,23.70
2022-12-11T05:38:20.125Z,25.90
2022-12-11T05:40:56.721Z,23.50
2022-12-11T05:43:23.939Z,21.07
2022-12-11T05:45:51.053Z,25.00
2022-12-11T05:48:18.251Z,22.80
2022-12-11T05:50:45.686Z,24.23
2022-12-11T05:53:12.835Z,22.87
2022-12-11T05:55:39.982Z,24.47
2022-12-11T05:58:09.218Z,23.60
2022-12-11T06:00:36.474Z,21.87
2022-12-11T06:03:04.195Z,24.90
2022-12-11T06:05:31.479Z,22.93
2022-12-11T06:08:00.179Z,24.60
2022-12-11T06:10:27.393Z,22.50
2022-12-11T06:12:54.497Z,23.37
2022-12-11T06:15:22.123Z,21.07
2022-12-11T06:17:49.204Z,24.60
2022-12-11T06:20:16.370Z,23.87
2022-12-11T06:22:43.575Z,22.80
2022-12-11T06:25:11.170Z,23.37
2022-12-11T06:27:38.601Z,22.23
2022-12-11T06:30:05.948Z,22.47
2022-12-11T06:32:34.090Z,23.60
2022-12-11T06:35:01.211Z,22.47
2022-12-11T06:37:28.310Z,23.90
2022-12-11T06:39:55.423Z,23.03
2022-12-11T06:42:22.574Z,22.60
2022-12-11T06:44:50.251Z,23.70
2022-12-11T06:47:17.381Z,21.80
2022-12-11T06:49:44.502Z,24.47
2022-12-11T06:52:18.031Z,21.63
2022-12-11T06:54:45.727Z,23.00
2022-12-11T06:57:14.217Z,25.20
2022-12-11T06:59:42.509Z,23.47
2022-12-11T07:02:16.595Z,24.40
2022-12-11T07:04:43.983Z,23.60
2022-12-11T07:07:11.424Z,24.50
2022-12-11T07:09:39.854Z,25.27
2022-12-11T07:12:07.202Z,23.20
2022-12-11T07:14:34.374Z,23.00
2022-12-11T07:17:01.847Z,23.47
2022-12-11T07:19:28.970Z,22.57
2022-12-11T07:21:56.097Z,22.80
2022-12-11T07:24:23.817Z,23.13
2022-12-11T07:26:50.965Z,25.00
2022-12-11T07:29:18.095Z,22.80
2022-12-11T07:31:45.270Z,23.23
2022-12-11T07:34:14.025Z,24.20
2022-12-11T07:36:41.652Z,24.00
2022-12-11T07:39:09.077Z,23.90
2022-12-11T07:41:36.300Z,22.87
2022-12-11T07:44:06.723Z,22.77
2022-12-11T07:46:34.491Z,22.50
2022-12-11T07:49:02.715Z,21.33
2022-12-11T07:51:32.250Z,22.97
2022-12-11T07:54:00.396Z,22.80
2022-12-11T07:56:28.572Z,24.40
2022-12-11T07:58:55.814Z,25.43
2022-12-11T08:01:25.951Z,24.43
2022-12-11T08:03:53.803Z,25.50
2022-12-11T08:06:26.844Z,25.47
2022-12-11T08:08:54.929Z,25.63
2022-12-11T08:11:22.106Z,25.43
2022-12-11T08:13:49.709Z,26.17
2022-12-11T08:16:18.353Z,25.40
2022-12-11T08:18:46.339Z,26.40
2022-12-11T08:21:15.046Z,25.90
2022-12-11T08:23:42.706Z,25.50
2022-12-11T08:26:11.540Z,27.83
2022-12-11T08:28:38.764Z,26.20
2022-12-11T08:31:06.635Z,26.63
2022-12-11T08:33:34.472Z,24.17
2022-12-11T08:36:05.345Z,26.10
2022-12-11T08:38:32.474Z,25.67
2022-12-11T08:40:59.618Z,27.83
2022-12-11T08:43:26.790Z,26.60
2022-12-11T08:45:53.960Z,26.00
2022-12-11T08:48:21.207Z,26.80
2022-12-11T08:50:49.580Z,26.83
2022-12-11T08:53:16.784Z,26.60
2022-12-11T08:55:43.931Z,26.17
2022-12-11T08:58:11.069Z,26.30
2022-12-11T09:00:38.241Z,26.40
2022-12-11T09:03:09.754Z,27.00
2022-12-11T09:05:39.987Z,26.70
2022-12-11T09:08:07.449Z,26.20
2022-12-11T09:10:34.617Z,28.90
2022-12-11T09:13:01.765Z,28.27
2022-12-11T09:15:29.011Z,27.77
2022-12-11T09:17:56.181Z,26.47
2022-12-11T09:20:23.322Z,27.30
2022-12-11T09:22:50.571Z,27.10
2022-12-11T09:25:19.847Z,27.30
2022-12-11T09:27:47.187Z,27.20
2022-12-11T09:30:15.448Z,27.57
2022-12-11T09:32:42.653Z,29.33
2022-12-11T09:35:11.280Z,28.37
2022-12-11T09:37:38.679Z,27.40
2022-12-11T09:40:07.877Z,31.30
2022-12-11T09:42:46.963Z,29.60
2022-12-11T09:45:15.723Z,29.33
2022-12-11T09:47:49.958Z,30.20
2022-12-11T09:50:27.734Z,29.07
2022-12-11T09:52:54.863Z,28.97
2022-12-11T09:55:25.840Z,26.60
2022-12-11T09:57:56.040Z,29.20
2022-12-11T10:00:27.036Z,29.43
2022-12-11T10:03:12.218Z,26.13
2022-12-11T10:05:48.430Z,27.23
2022-12-11T10:08:22.584Z,29.00
2022-12-11T10:11:03.842Z,29.90
2022-12-11T10:13:30.969Z,32.20
2022-12-11T10:16:01.103Z,28.57
2022-12-11T10:18:30.864Z,30.10
2022-12-11T10:21:01.851Z,27.73
2022-12-11T10:23:35.350Z,29.30
2022-12-11T10:26:05.433Z,26.53
2022-12-11T10:28:32.581Z,29.57
2022-12-11T10:31:06.088Z,25.93
2022-12-11T10:33:37.976Z,26.67
2022-12-11T10:36:07.865Z,26.27
2022-12-11T10:38:39.338Z,29.33
2022-12-11T10:41:11.878Z,27.93
2022-12-11T10:43:43.437Z,26.40
2022-12-11T10:46:17.704Z,29.47
2022-12-11T10:48:49.641Z,26.50
2022-12-11T10:51:17.035Z,27.80
2022-12-11T10:53:44.975Z,29.67
2022-12-11T10:56:12.882Z,28.83
2022-12-11T10:58:48.193Z,29.17
2022-12-11T11:01:16.777Z,28.70
2022-12-11T11:04:04.714Z,31.83
2022-12-11T11:06:31.874Z,29.07
2022-12-11T11:09:00.549Z,30.30
2022-12-11T11:11:27.731Z,27.73
2022-12-11T11:14:15.356Z,31.47
2022-12-11T11:16:44.164Z,29.33
2022-12-11T11:19:25.434Z,31.30
2022-12-11T11:21:54.245Z,30.30
2022-12-11T11:24:27.145Z,29.07
2022-12-11T11:27:24.086Z,30.90
2022-12-11T11:29:43.192Z,31.47
2022-12-11T11:32:16.553Z,28.13
2022-12-11T11:34:43.879Z,29.00
2022-12-11T11:37:29.936Z,29.90
2022-12-11T11:39:59.776Z,29.77
2022-12-11T11:42:34.193Z,29.77
2022-12-11T11:45:07.747Z,28.50
2022-12-11T11:47:37.243Z,29.13
2022-12-11T11:50:08.795Z,27.43
2022-12-11T11:52:44.140Z,26.53
2022-12-11T11:55:29.102Z,24.33
2022-12-11T11:58:00.037Z,24.10
2022-12-11T12:00:33.310Z,26.10
2022-12-11T12:03:02.606Z,26.30
2022-12-11T12:05:39.219Z,27.00
2022-12-11T12:08:12.923Z,24.30
2022-12-11T12:10:42.822Z,25.27
2022-12-11T12:13:30.072Z,25.03
2022-12-11T12:15:58.475Z,26.10
2022-12-11T12:18:48.946Z,23.07
2022-12-11T12:21:32.175Z,24.00
2022-12-11T12:24:18.292Z,25.47
2022-12-11T12:26:53.320Z,23.13
2022-12-11T12:29:35.093Z,26.40
2022-12-11T12:32:21.589Z,22.40
2022-12-11T12:34:51.768Z,23.63
2022-12-11T12:37:27.229Z,22.10
2022-12-11T12:40:15.322Z,23.03
2022-12-11T12:43:00.909Z,24.23
2022-12-11T12:45:31.480Z,25.50
2022-12-11T12:47:58.682Z,21.80
2022-12-11T12:50:28.243Z,26.13
2022-12-11T12:52:55.957Z,25.97
2022-12-11T12:55:25.714Z,26.93
2022-12-11T12:57:57.655Z,24.20
2022-12-11T13:00:27.744Z,24.40
2022-12-11T13:02:56.158Z,25.00
2022-12-11T13:05:31.348Z,22.93
2022-12-11T13:08:00.221Z,22.67
2022-12-11T13:10:34.970Z,21.33
2022-12-11T13:13:03.077Z,22.57
2022-12-11T13:15:35.544Z,20.40
2022-12-11T13:18:04.383Z,17.60
2022-12-11T13:20:32.913Z,22.40
2022-12-11T13:23:09.882Z,22.63
2022-12-11T13:25:51.389Z,22.13
2022-12-11T13:28:24.683Z,22.80
2022-12-11T13:31:23.822Z,22.13
2022-12-11T13:33:52.090Z,21.53
2022-12-11T13:36:24.297Z,19.30
2022-12-11T13:39:10.822Z,20.50
2022-12-11T13:41:38.141Z,19.80
2022-12-11T13:44:07.023Z,21.77
2022-12-11T13:46:36.043Z,20.67
2022-12-11T13:49:04.888Z,22.50
2022-12-11T13:51:35.069Z,20.30
2022-12-11T13:54:06.666Z,21.13
2022-12-11T13:56:34.274Z,21.10
2022-12-11T13:59:01.427Z,21.60
2022-12-11T14:01:31.235Z,23.17
2022-12-11T14:04:00.066Z,23.40
2022-12-11T14:06:28.568Z,21.83
2022-12-11T14:08:56.921Z,20.23
2022-12-11T14:11:38.324Z,21.73
2022-12-11T14:14:07.260Z,18.67
2022-12-11T14:16:34.585Z,21.67
2022-12-11T14:19:09.575Z,22.27
2022-12-11T14:21:37.182Z,21.60
2022-12-11T14:24:06.518Z,19.37
2022-12-11T14:26:34.781Z,21.73
2022-12-11T14:29:02.808Z,22.77
2022-12-11T14:31:43.948Z,21.23
2022-12-11T14:34:13.897Z,21.07
2022-12-11T14:36:41.955Z,20.13
2022-12-11T14:39:14.487Z,20.80
2022-12-11T14:42:04.146Z,21.20
2022-12-11T14:44:33.096Z,21.50
2022-12-11T14:47:05.065Z,21.13
2022-12-11T14:49:40.354Z,21.17
2022-12-11T14:52:14.450Z,21.60
2022-12-11T14:54:44.797Z,21.87
2022-12-11T14:57:23.924Z,21.37
2022-12-11T14:59:51.945Z,21.17
2022-12-11T15:02:30.551Z,22.33
2022-12-11T15:05:03.969Z,21.03
2022-12-11T15:07:31.244Z,20.57
2022-12-11T15:09:58.423Z,22.57
2022-12-11T15:12:26.214Z,22.10
2022-12-11T15:14:55.907Z,19.33
2022-12-11T15:17:23.744Z,18.70
2022-12-11T15:19:53.240Z,17.53
2022-12-11T15:22:23.714Z,18.80
2022-12-11T15:24:52.161Z,20.20
2022-12-11T15:27:31.217Z,19.93
2022-12-11T15:29:58.856Z,20.50
2022-12-11T15:32:26.932Z,23.53
2022-12-11T15:34:55.409Z,21.63
2022-12-11T15:37:24.246Z,19.40
2022-12-11T15:39:51.993Z,21.10
2022-12-11T15:42:26.138Z,22.87
2022-12-11T15:44:53.825Z,23.40
2022-12-11T15:47:25.189Z,21.63
2022-12-11T15:50:18.434Z,21.93
2022-12-11T15:52:46.427Z,21.90
2022-12-11T15:55:14.999Z,23.10
2022-12-11T15:57:45.779Z,24.30
2022-12-11T16:00:17.087Z,22.87
2022-12-11T16:02:44.200Z,21.93
2022-12-11T16:05:12.171Z,23.63
2022-12-11T16:07:39.525Z,21.73
2022-12-11T16:10:07.549Z,23.77
2022-12-11T16:12:34.789Z,21.97
2022-12-11T16:15:03.105Z,25.47
2022-12-11T16:17:31.304Z,24.57
2022-12-11T16:19:58.452Z,23.70
2022-12-11T16:22:27.629Z,23.70
2022-12-11T16:24:55.023Z,24.67
2022-12-11T16:27:23.380Z,22.10
2022-12-11T16:29:51.065Z,22.53
2022-12-11T16:32:18.558Z,23.60
2022-12-11T16:34:49.067Z,21.53
2022-12-11T16:37:16.297Z,21.40
2022-12-11T16:39:45.805Z,24.77
2022-12-11T16:42:12.939Z,24.20
2022-12-11T16:44:43.981Z,23.83
2022-12-11T16:47:11.742Z,21.63
2022-12-11T16:49:38.858Z,24.00
2022-12-11T16:52:06.073Z,23.10
2022-12-11T16:54:33.177Z,26.03
2022-12-11T16:57:00.416Z,25.27
2022-12-11T16:59:29.958Z,22.90
2022-12-11T17:01:59.507Z,22.20
2022-12-11T17:04:28.498Z,21.97
2022-12-11T17:06:55.651Z,24.00
2022-12-11T17:09:22.867Z,24.63
2022-12-11T17:11:50.205Z,25.40
2022-12-11T17:14:17.371Z,24.57
2022-12-11T17:16:45.437Z,25.23
2022-12-11T17:19:12.619Z,24.17
2022-12-11T17:21:39.793Z,24.70
2022-12-11T17:24:08.668Z,23.20
2022-12-11T17:26:35.799Z,24.10
2022-12-11T17:29:02.990Z,24.20
2022-12-11T17:31:31.659Z,22.53
2022-12-11T17:34:00.521Z,25.30
2022-12-11T17:36:28.563Z,25.43
2022-12-11T17:38:55.737Z,23.87
2022-12-11T17:41:23.341Z,26.50
2022-12-11T17:43:51.891Z,26.20
2022-12-11T17:46:19.886Z,26.80
2022-12-11T17:48:47.576Z,26.73
2022-12-11T17:51:20.932Z,26.33
2022-12-11T17:53:48.507Z,23.40
2022-12-11T17:56:16.396Z,27.17
2022-12-11T17:58:43.673Z,28.20
2022-12-11T18:01:12.341Z,26.70
2022-12-11T18:03:40.254Z,24.27
2022-12-11T18:06:10.192Z,25.93
2022-12-11T18:08:37.576Z,25.43
2022-12-11T18:11:15.605Z,25.97
2022-12-11T18:13:43.536Z,25.70
2022-12-11T18:16:25.528Z,25.40
2022-12-11T18:18:52.865Z,25.80
2022-12-11T18:21:22.104Z,25.07
2022-12-11T18:23:50.359Z,25.20
2022-12-11T18:26:18.310Z,25.97
2022-12-11T18:28:46.218Z,30.40
2022-12-11T18:31:13.975Z,26.47
2022-12-11T18:33:41.982Z,25.27
2022-12-11T18:36:09.461Z,24.80
2022-12-11T18:38:37.036Z,23.47
2022-12-11T18:41:04.805Z,26.10
2022-12-11T18:43:32.260Z,25.10
2022-12-11T18:45:59.560Z,26.73
2022-12-11T18:48:28.991Z,28.30
2022-12-11T18:50:56.119Z,27.50
2022-12-11T18:53:23.268Z,24.73
2022-12-11T18:55:51.225Z,26.93
2022-12-11T18:58:20.708Z,27.30
2022-12-11T19:00:47.959Z,27.40
2022-12-11T19:03:15.252Z,25.47
2022-12-11T19:05:43.776Z,27.00
2022-12-11T19:08:13.912Z,27.50
2022-12-11T19:10:42.608Z,26.47
2022-12-11T19:13:09.972Z,26.03
2022-12-11T19:15:43.732Z,24.10
2022-12-11T19:18:11.539Z,21.60
2022-12-11T19:20:49.321Z,20.53
2022-12-11T19:23:18.229Z,21.10
2022-12-11T19:25:46.648Z,21.70
2022-12-11T19:28:14.725Z,19.50
2022-12-11T19:30:43.320Z,21.30
2022-12-11T19:33:10.475Z,24.00
2022-12-11T19:35:37.774Z,22.13
2022-12-11T19:38:05.044Z,23.30
2022-12-11T19:40:32.174Z,22.00
2022-12-11T19:42:59.656Z,22.00
2022-12-11T19:45:26.919Z,24.50
2022-12-11T19:47:55.083Z,23.77
2022-12-11T19:50:22.252Z,23.20
2022-12-11T19:52:50.431Z,24.27
2022-12-11T19:55:19.476Z,21.13
2022-12-11T19:57:46.803Z,21.27
2022-12-11T20:00:14.558Z,22.20
2022-12-11T20:02:42.335Z,22.03
2022-12-11T20:05:10.026Z,23.10
2022-12-11T20:07:38.605Z,24.13
2022-12-11T20:10:05.964Z,24.47
2022-12-11T20:12:33.244Z,25.23
2022-12-11T20:15:00.394Z,25.80
2022-12-11T20:17:27.585Z,24.17
2022-12-11T20:19:54.732Z,25.40
2022-12-11T20:22:22.230Z,24.53
2022-12-11T20:24:49.373Z,26.03
2022-12-11T20:27:16.535Z,26.43
2022-12-11T20:29:43.671Z,26.60
2022-12-11T20:32:11.366Z,24.57
2022-12-11T20:34:39.001Z,23.90
2022-12-11T20:37:07.656Z,24.93
2022-12-11T20:39:35.543Z,26.10
2022-12-11T20:42:04.771Z,22.33
2022-12-11T20:44:32.580Z,23.10
2022-12-11T20:46:59.719Z,24.30
2022-12-11T20:49:27.893Z,25.37
2022-12-11T20:51:55.995Z,22.70
2022-12-11T20:54:23.134Z,24.53
2022-12-11T20:56:50.359Z,22.10
2022-12-11T20:59:17.994Z,23.90
2022-12-11T21:01:45.162Z,22.53
2022-12-11T21:04:12.446Z,23.10
2022-12-11T21:06:40.509Z,21.70
2022-12-11T21:09:11.380Z,22.80
2022-12-11T21:11:38.472Z,22.87
2022-12-11T21:14:06.618Z,21.40
2022-12-11T21:16:36.288Z,22.90
2022-12-11T21:19:04.591Z,25.03
2022-12-11T21:21:32.686Z,22.10
2022-12-11T21:23:59.970Z,24.17
2022-12-11T21:26:27.096Z,22.47
2022-12-11T21:28:54.266Z,23.10
2022-12-11T21:31:22.698Z,24.30
2022-12-11T21:33:50.259Z,23.90
2022-12-11T21:36:18.510Z,21.57
2022-12-11T21:38:46.136Z,24.07
2022-12-11T21:41:15.519Z,20.93
2022-12-11T21:44:14.555Z,21.97
2022-12-11T21:46:31.136Z,23.13
2022-12-11T21:48:58.534Z,22.10
2022-12-11T21:51:32.394Z,22.70
2022-12-11T21:54:03.221Z,24.60
2022-12-11T21:56:31.624Z,24.13
2022-12-11T21:58:58.849Z,25.63
2022-12-11T22:01:27.199Z,22.77
2022-12-11T22:03:55.478Z,26.10
2022-12-11T22:06:22.666Z,26.97
2022-12-11T22:08:49.824Z,26.60
2022-12-11T22:11:19.182Z,25.73
2022-12-11T22:13:46.302Z,23.30
2022-12-11T22:16:13.633Z,24.93
2022-12-11T22:18:42.169Z,23.50
2022-12-11T22:21:09.284Z,27.17
2022-12-11T22:23:38.593Z,25.30
2022-12-11T22:26:06.397Z,24.00
2022-12-11T22:28:33.640Z,24.43
2022-12-11T22:31:01.157Z,22.73
2022-12-11T22:33:28.312Z,25.13
2022-12-11T22:35:56.653Z,25.23
2022-12-11T22:38:24.520Z,25.97
2022-12-11T22:40:52.212Z,25.67
2022-12-11T22:43:19.408Z,25.60
2022-12-11T22:45:46.643Z,27.50
2022-12-11T22:48:13.788Z,27.60
2022-12-11T22:50:41.677Z,26.83
2022-12-11T22:53:08.944Z,25.60
2022-12-11T22:55:38.640Z,26.67
2022-12-11T22:58:05.917Z,26.57
2022-12-11T23:00:33.240Z,24.87
2022-12-11T23:03:01.792Z,26.40
2022-12-11T23:05:29.521Z,27.57
2022-12-11T23:07:57.086Z,25.30
2022-12-11T23:10:24.962Z,27.87
2022-12-11T23:12:52.701Z,26.00
2022-12-11T23:15:19.860Z,26.77
2022-12-11T23:17:48.897Z,26.67
2022-12-11T23:20:16.639Z,24.80
2022-12-11T23:22:45.060Z,26.67
2022-12-11T23:25:15.674Z,27.20
2022-12-11T23:27:43.396Z,25.20
2022-12-11T23:30:11.004Z,25.37
2022-12-11T23:32:38.547Z,25.40
2022-12-11T23:35:06.845Z,26.40
2022-12-11T23:37:34.467Z,27.83
2022-12-11T23:40:01.936Z,27.53
2022-12-11T23:42:29.258Z,28.53
2022-12-11T23:44:57.723Z,26.57
2022-12-11T23:47:25.429Z,28.00
2022-12-11T23:49:52.774Z,25.73
2022-12-11T23:52:22.922Z,27.50
2022-12-11T23:54:51.804Z,28.53
2022-12-11T23:57:19.693Z,27.23
2022-12-11T23:59:46.983Z,27.60
